createdAt,value
2018-01-07T00:01:05.457Z,97956.95
2018-01-07T00:21:39.867Z,97974.57
2018-01-07T00:42:13.851Z,98000.89
2018-01-07T01:02:49.363Z,98025.67
2018-01-07T01:23:24.388Z,98063.96
2018-01-07T01:43:58.772Z,98081.52
2018-01-07T02:04:33.401Z,98099.05
2018-01-07T02:25:09.904Z,98124.71
2018-01-07T02:45:46.479Z,98140.47
2018-01-07T03:06:25.359Z,98164.73
2018-01-07T03:27:00.976Z,98179.80
2018-01-07T04:05:32.653Z,98221.91
2018-01-07T04:26:07.928Z,98222.92
2018-01-07T04:46:42.281Z,98220.02
2018-01-07T05:07:16.019Z,98226.27
2018-01-07T05:27:48.216Z,98255.60
2018-01-07T05:48:22.874Z,98279.72
2018-01-07T06:08:56.913Z,98291.36
2018-01-07T06:29:32.187Z,98338.11
2018-01-07T06:50:07.458Z,98356.70
2018-01-07T07:10:41.505Z,98395.94
2018-01-07T07:31:16.147Z,98430.55
2018-01-07T07:51:51.126Z,98464.78
2018-01-07T08:12:24.241Z,98507.25
2018-01-07T08:32:59.799Z,98527.84
2018-01-07T08:53:34.976Z,98566.75
2018-01-07T09:14:07.910Z,98603.20
2018-01-07T09:34:48.468Z,98639.55
2018-01-07T09:55:22.448Z,98662.92
2018-01-07T10:15:56.492Z,98673.61
2018-01-07T10:36:28.994Z,98669.41
2018-01-07T10:57:03.966Z,98666.47
2018-01-07T11:17:38.315Z,98661.80
2018-01-07T11:38:09.589Z,98667.33
2018-01-07T11:58:42.715Z,98664.93
2018-01-07T12:19:17.983Z,98651.87
2018-01-07T12:40:00.324Z,98637.36
2018-01-07T13:00:34.061Z,98617.12
2018-01-07T13:21:08.721Z,98608.35
2018-01-07T13:41:43.991Z,98596.22
2018-01-07T14:02:20.180Z,98586.77
2018-01-07T14:22:52.384Z,98620.23
2018-01-07T14:43:26.878Z,98659.20
2018-01-07T15:03:58.628Z,98683.45
2018-01-07T15:24:31.136Z,98689.53
2018-01-07T15:45:06.099Z,98710.95
2018-01-07T16:05:39.530Z,98715.20
2018-01-07T16:26:12.647Z,98736.64
2018-01-07T16:46:46.141Z,98739.36
2018-01-07T17:07:20.123Z,98771.25
2018-01-07T17:27:56.932Z,98775.08
2018-01-07T17:48:31.888Z,98803.22
2018-01-07T18:09:10.857Z,98811.19
2018-01-07T18:29:42.160Z,98826.58
2018-01-07T18:50:14.335Z,98828.39
2018-01-07T19:10:48.384Z,98835.92
2018-01-07T19:31:22.726Z,98851.95
2018-01-07T19:51:59.239Z,98843.42
2018-01-07T20:12:36.050Z,98830.47
2018-01-07T20:33:12.661Z,98830.59
2018-01-07T20:53:47.507Z,98838.77
2018-01-07T21:14:22.782Z,98831.88
2018-01-07T21:34:57.340Z,98853.66
2018-01-07T21:55:34.589Z,98844.16
2018-01-07T22:16:08.593Z,98842.17
2018-01-07T22:36:41.711Z,98841.92
2018-01-07T22:57:19.271Z,98814.75
2018-01-07T23:17:55.578Z,98800.16
2018-01-07T23:38:30.738Z,98799.17
2018-01-07T23:59:06.796Z,98795.24
